createdAt,value
2023-03-10T00:00:00.452Z,1.73
2023-03-10T00:00:31.875Z,1.70
2023-03-10T00:01:14.184Z,1.67
2023-03-10T00:01:45.570Z,1.70
2023-03-10T00:02:19.934Z,1.69
2023-03-10T00:02:51.592Z,1.69
2023-03-10T00:03:23.008Z,1.68
2023-03-10T00:03:55.820Z,1.69
2023-03-10T00:04:27.832Z,1.65
2023-03-10T00:04:59.626Z,1.68
2023-03-10T00:05:31.108Z,1.65
2023-03-10T00:06:02.979Z,1.67
2023-03-10T00:06:36.267Z,1.61
2023-03-10T00:07:07.767Z,1.62
2023-03-10T00:07:39.948Z,1.65
2023-03-10T00:08:11.413Z,1.62
2023-03-10T00:08:43.463Z,1.65
2023-03-10T00:09:14.895Z,1.64
2023-03-10T00:09:46.915Z,1.67
2023-03-10T00:10:18.472Z,1.67
2023-03-10T00:10:49.831Z,1.68
2023-03-10T00:11:21.591Z,1.65
2023-03-10T00:11:53.024Z,1.63
2023-03-10T00:12:27.772Z,1.65
2023-03-10T00:12:59.437Z,1.66
2023-03-10T00:13:30.939Z,1.65
2023-03-10T00:14:02.473Z,1.67
2023-03-10T00:14:33.953Z,1.71
2023-03-10T00:15:07.073Z,1.66
2023-03-10T00:15:38.506Z,1.69
2023-03-10T00:16:18.261Z,1.71
2023-03-10T00:16:49.729Z,1.68
2023-03-10T00:17:21.179Z,1.67
2023-03-10T00:17:55.608Z,1.64
2023-03-10T00:18:27.131Z,1.70
2023-03-10T00:18:58.544Z,1.67
2023-03-10T00:19:30.541Z,1.71
2023-03-10T00:20:02.511Z,1.68
2023-03-10T00:20:33.932Z,1.70
2023-03-10T00:21:05.636Z,1.68
2023-03-10T00:21:37.034Z,1.66
2023-03-10T00:22:08.493Z,1.67
2023-03-10T00:22:41.843Z,1.68
2023-03-10T00:23:13.384Z,1.68
2023-03-10T00:23:44.874Z,1.68
2023-03-10T00:24:16.324Z,1.69
2023-03-10T00:24:47.864Z,1.70
2023-03-10T00:25:19.522Z,1.67
2023-03-10T00:25:59.239Z,1.73
2023-03-10T00:26:30.814Z,1.69
2023-03-10T00:27:02.193Z,1.73
2023-03-10T00:27:33.957Z,1.71
2023-03-10T00:28:05.435Z,1.71
2023-03-10T00:28:36.894Z,1.69
2023-03-10T00:29:10.794Z,1.72
2023-03-10T00:29:42.255Z,1.69
2023-03-10T00:30:14.475Z,1.69
2023-03-10T00:30:45.833Z,1.71
2023-03-10T00:31:22.686Z,1.76
2023-03-10T00:31:54.131Z,1.75
2023-03-10T00:32:25.798Z,1.76
2023-03-10T00:32:57.288Z,1.77
2023-03-10T00:33:30.920Z,1.79
2023-03-10T00:34:02.307Z,1.76
2023-03-10T00:34:33.760Z,1.80
2023-03-10T00:35:06.341Z,1.80
2023-03-10T00:35:37.771Z,1.74
2023-03-10T00:36:13.232Z,1.81
2023-03-10T00:36:44.783Z,1.79
2023-03-10T00:37:16.628Z,1.77
2023-03-10T00:37:48.197Z,1.72
2023-03-10T00:38:19.629Z,1.72
2023-03-10T00:38:52.817Z,1.69
2023-03-10T00:39:24.227Z,1.70
2023-03-10T00:39:55.739Z,1.69
2023-03-10T00:40:27.453Z,1.70
2023-03-10T00:41:01.017Z,1.72
2023-03-10T00:41:36.551Z,1.71
2023-03-10T00:42:08.027Z,1.71
2023-03-10T00:42:39.659Z,1.74
2023-03-10T00:43:11.143Z,1.68
2023-03-10T00:43:43.430Z,1.68
2023-03-10T00:44:15.300Z,1.72
2023-03-10T00:44:47.038Z,1.76
2023-03-10T00:45:18.510Z,1.76
2023-03-10T00:45:50.099Z,1.76
2023-03-10T00:46:23.177Z,1.74
2023-03-10T00:46:55.049Z,1.79
2023-03-10T00:47:26.497Z,1.78
2023-03-10T00:47:58.171Z,1.76
2023-03-10T00:48:29.784Z,1.80
2023-03-10T00:49:01.336Z,1.79
2023-03-10T00:49:32.746Z,1.77
2023-03-10T00:50:04.854Z,1.78
2023-03-10T00:50:36.400Z,1.75
2023-03-10T00:51:08.382Z,1.80
2023-03-10T00:51:39.828Z,1.78
2023-03-10T00:52:11.256Z,1.80
2023-03-10T00:52:42.777Z,1.76
2023-03-10T00:53:14.497Z,1.80
2023-03-10T00:53:46.100Z,1.80
2023-03-10T00:54:17.491Z,1.77
2023-03-10T00:54:49.008Z,1.78
2023-03-10T00:55:20.408Z,1.76
2023-03-10T00:56:02.408Z,1.78
2023-03-10T00:56:33.832Z,1.79
2023-03-10T00:57:05.306Z,1.78
2023-03-10T00:57:38.337Z,1.76
2023-03-10T00:58:10.101Z,1.78
2023-03-10T00:58:42.675Z,1.79
2023-03-10T00:59:14.187Z,1.77
2023-03-10T00:59:50.439Z,1.76
2023-03-10T01:00:23.456Z,1.76
2023-03-10T01:00:55.020Z,1.79
2023-03-10T01:02:20.009Z,1.80
2023-03-10T01:02:53.005Z,1.78
2023-03-10T01:03:26.313Z,1.77
2023-03-10T01:04:00.886Z,1.77
2023-03-10T01:04:32.386Z,1.74
2023-03-10T01:05:04.432Z,1.72
2023-03-10T01:05:35.877Z,1.76
2023-03-10T01:06:07.460Z,1.76
2023-03-10T01:06:39.253Z,1.74
2023-03-10T01:07:11.015Z,1.76
2023-03-10T01:07:42.525Z,1.75
2023-03-10T01:08:14.004Z,1.77
2023-03-10T01:08:45.468Z,1.77
2023-03-10T01:09:17.824Z,1.79
2023-03-10T01:09:49.348Z,1.81
2023-03-10T01:10:21.246Z,1.74
2023-03-10T01:10:52.775Z,1.80
2023-03-10T01:11:27.676Z,1.80
2023-03-10T01:11:59.289Z,1.80
2023-03-10T01:12:30.689Z,1.77
2023-03-10T01:13:02.138Z,1.79
2023-03-10T01:13:33.868Z,1.77
2023-03-10T01:14:07.884Z,1.79
2023-03-10T01:14:39.348Z,1.78
2023-03-10T01:15:12.177Z,1.82
2023-03-10T01:15:51.055Z,1.81
2023-03-10T01:16:23.159Z,1.82
2023-03-10T01:16:54.655Z,1.82
2023-03-10T01:17:26.086Z,1.81
2023-03-10T01:17:57.614Z,1.80
2023-03-10T01:18:29.052Z,1.81
2023-03-10T01:19:01.069Z,1.85
2023-03-10T01:19:32.627Z,1.81
2023-03-10T01:20:08.355Z,1.84
2023-03-10T01:20:41.728Z,1.82
2023-03-10T01:21:19.648Z,1.83
2023-03-10T01:21:51.209Z,1.81
2023-03-10T01:22:23.040Z,1.78
2023-03-10T01:22:54.554Z,1.76
2023-03-10T01:23:26.603Z,1.77
2023-03-10T01:23:58.662Z,1.77
2023-03-10T01:24:30.217Z,1.78
2023-03-10T01:25:02.016Z,1.78
2023-03-10T01:25:33.535Z,1.71
2023-03-10T01:26:05.090Z,1.75
2023-03-10T01:26:36.686Z,1.78
2023-03-10T01:27:08.068Z,1.78
2023-03-10T01:27:39.553Z,1.77
2023-03-10T01:28:11.600Z,1.78
2023-03-10T01:28:43.066Z,1.77
2023-03-10T01:29:14.446Z,1.82
2023-03-10T01:29:45.914Z,1.81
2023-03-10T01:30:17.549Z,1.78
2023-03-10T01:30:49.247Z,1.78
2023-03-10T01:31:20.995Z,1.79
2023-03-10T01:31:52.349Z,1.82
2023-03-10T01:32:24.164Z,1.82
2023-03-10T01:32:55.917Z,1.82
2023-03-10T01:33:27.583Z,1.84
2023-03-10T01:33:59.065Z,1.83
2023-03-10T01:34:30.587Z,1.82
2023-03-10T01:35:02.198Z,1.87
2023-03-10T01:35:34.047Z,1.86
2023-03-10T01:36:13.430Z,1.88
2023-03-10T01:36:44.969Z,1.87
2023-03-10T01:37:16.481Z,1.88
2023-03-10T01:37:47.859Z,1.87
2023-03-10T01:38:19.391Z,1.89
2023-03-10T01:38:50.830Z,1.89
2023-03-10T01:39:22.508Z,1.86
2023-03-10T01:39:53.937Z,1.85
2023-03-10T01:40:26.816Z,1.88
2023-03-10T01:40:58.537Z,1.88
2023-03-10T01:41:30.147Z,1.86
2023-03-10T01:42:01.572Z,1.86
2023-03-10T01:42:33.054Z,1.87
2023-03-10T01:43:19.421Z,1.90
2023-03-10T01:43:53.129Z,1.90
2023-03-10T01:44:24.544Z,1.89
2023-03-10T01:45:08.234Z,1.86
2023-03-10T01:45:39.554Z,1.89
2023-03-10T01:46:35.933Z,1.89
2023-03-10T01:47:07.640Z,1.88
2023-03-10T01:47:39.154Z,1.88
2023-03-10T01:48:11.382Z,1.89
2023-03-10T01:48:42.776Z,1.88
2023-03-10T01:49:22.556Z,1.89
2023-03-10T01:49:54.116Z,1.90
2023-03-10T01:50:25.762Z,1.90
2023-03-10T01:50:58.421Z,1.89
2023-03-10T01:51:34.281Z,1.91
2023-03-10T01:52:19.402Z,1.91
2023-03-10T01:52:56.871Z,1.91
2023-03-10T01:53:29.471Z,1.91
2023-03-10T01:54:04.101Z,1.87
2023-03-10T01:54:42.506Z,1.90
2023-03-10T01:55:23.741Z,1.89
2023-03-10T01:55:59.049Z,1.87
2023-03-10T01:56:30.982Z,1.86
2023-03-10T01:57:02.692Z,1.83
2023-03-10T01:57:40.223Z,1.84
2023-03-10T01:58:11.712Z,1.81
2023-03-10T01:58:46.401Z,1.84
2023-03-10T01:59:19.222Z,1.86
2023-03-10T01:59:52.027Z,1.86
2023-03-10T02:00:25.978Z,1.82
2023-03-10T02:00:57.668Z,1.83
2023-03-10T02:01:30.956Z,1.83
2023-03-10T02:02:03.427Z,1.84
2023-03-10T02:02:37.238Z,1.85
2023-03-10T02:03:21.646Z,1.87
2023-03-10T02:04:02.138Z,1.87
2023-03-10T02:04:37.118Z,1.85
2023-03-10T02:05:08.965Z,1.83
2023-03-10T02:05:45.584Z,1.85
2023-03-10T02:06:19.906Z,1.85
2023-03-10T02:06:52.203Z,1.82
2023-03-10T02:07:27.831Z,1.85
2023-03-10T02:08:00.535Z,1.83
2023-03-10T02:08:37.771Z,1.85
2023-03-10T02:09:10.150Z,1.85
2023-03-10T02:09:44.916Z,1.86
2023-03-10T02:10:17.075Z,1.82
2023-03-10T02:10:50.715Z,1.82
2023-03-10T02:11:22.700Z,1.82
2023-03-10T02:11:55.543Z,1.83
2023-03-10T02:12:27.071Z,1.79
2023-03-10T02:12:58.696Z,1.81
2023-03-10T02:13:30.217Z,1.79
2023-03-10T02:14:04.695Z,1.80
2023-03-10T02:14:36.770Z,1.80
2023-03-10T02:15:08.679Z,1.78
2023-03-10T02:15:41.456Z,1.83
2023-03-10T02:16:13.722Z,1.83
2023-03-10T02:16:45.816Z,1.77
2023-03-10T02:17:21.272Z,1.77
2023-03-10T02:17:53.572Z,1.81
2023-03-10T02:18:25.962Z,1.78
2023-03-10T02:18:57.650Z,1.77
2023-03-10T02:19:42.161Z,1.76
2023-03-10T02:20:30.428Z,1.77
2023-03-10T02:21:24.458Z,1.78
2023-03-10T02:22:05.710Z,1.81
2023-03-10T02:22:39.384Z,1.82
2023-03-10T02:23:18.979Z,1.80
2023-03-10T02:24:07.012Z,1.84
2023-03-10T02:24:47.016Z,1.83
2023-03-10T02:25:24.044Z,1.86
2023-03-10T02:26:05.336Z,1.83
2023-03-10T02:26:44.163Z,1.82
2023-03-10T02:27:17.081Z,1.86
2023-03-10T02:27:49.194Z,1.86
2023-03-10T02:28:20.782Z,1.85
2023-03-10T02:28:54.147Z,1.83
2023-03-10T02:29:33.224Z,1.85
2023-03-10T02:30:23.769Z,1.83
2023-03-10T02:30:56.382Z,1.80
2023-03-10T02:31:29.585Z,1.81
2023-03-10T02:32:01.783Z,1.79
2023-03-10T02:32:36.857Z,1.78
2023-03-10T02:33:13.737Z,1.79
2023-03-10T02:33:47.020Z,1.78
2023-03-10T02:34:18.780Z,1.74
2023-03-10T02:34:50.287Z,1.79
2023-03-10T02:35:22.088Z,1.76
2023-03-10T02:35:54.387Z,1.75
2023-03-10T02:36:25.947Z,1.74
2023-03-10T02:36:57.423Z,1.71
2023-03-10T02:37:34.096Z,1.78
2023-03-10T02:38:05.722Z,1.73
2023-03-10T02:38:37.307Z,1.76
2023-03-10T02:39:08.719Z,1.77
2023-03-10T02:39:40.153Z,1.77
2023-03-10T02:40:33.888Z,1.78
2023-03-10T02:41:17.051Z,1.77
2023-03-10T02:41:48.910Z,1.77
2023-03-10T02:42:22.395Z,1.76
2023-03-10T02:42:53.851Z,1.78
2023-03-10T02:43:28.994Z,1.79
2023-03-10T02:44:04.433Z,1.77
2023-03-10T02:44:36.608Z,1.78
2023-03-10T02:45:11.707Z,1.80
2023-03-10T02:45:45.960Z,1.82
2023-03-10T02:46:18.368Z,1.80
2023-03-10T02:46:50.626Z,1.83
2023-03-10T02:47:22.604Z,1.81
2023-03-10T02:47:54.195Z,1.82
2023-03-10T02:48:36.938Z,1.84
2023-03-10T02:49:10.749Z,1.84
2023-03-10T02:49:42.966Z,1.79
2023-03-10T02:50:17.852Z,1.81
2023-03-10T02:50:49.677Z,1.79
2023-03-10T02:51:28.636Z,1.82
2023-03-10T02:52:02.670Z,1.83
2023-03-10T02:52:43.807Z,1.84
2023-03-10T02:53:16.607Z,1.84
2023-03-10T02:53:48.188Z,1.82
2023-03-10T02:54:19.633Z,1.79
2023-03-10T02:54:51.000Z,1.79
2023-03-10T02:55:22.817Z,1.82
2023-03-10T02:55:55.339Z,1.81
2023-03-10T02:56:28.553Z,1.83
2023-03-10T02:56:59.990Z,1.81
2023-03-10T02:57:31.574Z,1.81
2023-03-10T02:58:03.735Z,1.80
2023-03-10T02:58:35.574Z,1.76
2023-03-10T02:59:07.921Z,1.79
2023-03-10T02:59:39.672Z,1.76
2023-03-10T03:00:12.154Z,1.76
2023-03-10T03:00:46.669Z,1.73
2023-03-10T03:01:18.275Z,1.74
2023-03-10T03:01:49.995Z,1.74
2023-03-10T03:02:21.863Z,1.73
2023-03-10T03:02:53.290Z,1.78
2023-03-10T03:03:24.962Z,1.79
2023-03-10T03:03:57.031Z,1.79
2023-03-10T03:04:28.921Z,1.80
2023-03-10T03:05:00.419Z,1.81
2023-03-10T03:05:32.137Z,1.79
2023-03-10T03:06:03.758Z,1.82
2023-03-10T03:06:35.655Z,1.79
2023-03-10T03:07:07.105Z,1.82
2023-03-10T03:07:38.768Z,1.79
2023-03-10T03:08:10.482Z,1.81
2023-03-10T03:08:41.998Z,1.80
2023-03-10T03:09:13.395Z,1.78
2023-03-10T03:09:44.871Z,1.81
2023-03-10T03:10:16.563Z,1.77
2023-03-10T03:10:48.071Z,1.80
2023-03-10T03:11:19.844Z,1.76
2023-03-10T03:11:51.460Z,1.78
2023-03-10T03:12:22.842Z,1.78
2023-03-10T03:12:56.151Z,1.76
2023-03-10T03:13:27.989Z,1.77
2023-03-10T03:13:59.474Z,1.78
2023-03-10T03:14:30.977Z,1.77
2023-03-10T03:15:02.622Z,1.77
2023-03-10T03:15:34.423Z,1.77
2023-03-10T03:16:07.421Z,1.78
2023-03-10T03:16:38.926Z,1.77
2023-03-10T03:17:10.366Z,1.76
2023-03-10T03:17:41.892Z,1.77
2023-03-10T03:18:13.381Z,1.76
2023-03-10T03:18:45.028Z,1.76
2023-03-10T03:19:16.452Z,1.76
2023-03-10T03:19:47.810Z,1.77
2023-03-10T03:20:19.292Z,1.77
2023-03-10T03:20:50.764Z,1.78
2023-03-10T03:21:22.185Z,1.78
2023-03-10T03:21:53.624Z,1.74
2023-03-10T03:22:25.122Z,1.77
2023-03-10T03:22:57.686Z,1.78
2023-03-10T03:23:29.307Z,1.77
2023-03-10T03:24:00.757Z,1.75
2023-03-10T03:24:32.552Z,1.77
2023-03-10T03:25:04.407Z,1.78
2023-03-10T03:25:38.936Z,1.79
2023-03-10T03:26:16.311Z,1.80
2023-03-10T03:26:48.346Z,1.77
2023-03-10T03:27:19.955Z,1.76
2023-03-10T03:27:51.740Z,1.76
2023-03-10T03:28:23.110Z,1.77
2023-03-10T03:28:54.512Z,1.72
2023-03-10T03:29:26.242Z,1.78
2023-03-10T03:29:59.377Z,1.78
2023-03-10T03:30:31.573Z,1.77
2023-03-10T03:31:02.974Z,1.75
2023-03-10T03:31:34.517Z,1.72
2023-03-10T03:32:06.557Z,1.78
2023-03-10T03:32:38.220Z,1.77
2023-03-10T03:33:09.641Z,1.80
2023-03-10T03:33:41.116Z,1.79
2023-03-10T03:34:12.658Z,1.80
2023-03-10T03:34:44.050Z,1.81
2023-03-10T03:35:24.511Z,1.81
2023-03-10T03:35:56.125Z,1.80
2023-03-10T03:36:27.737Z,1.80
2023-03-10T03:36:59.189Z,1.80
2023-03-10T03:37:30.645Z,1.76
2023-03-10T03:38:03.516Z,1.78
2023-03-10T03:38:34.967Z,1.76
2023-03-10T03:39:07.206Z,1.77
2023-03-10T03:39:38.876Z,1.79
2023-03-10T03:40:14.730Z,1.78
2023-03-10T03:40:46.277Z,1.77
2023-03-10T03:41:18.002Z,1.77
2023-03-10T03:41:53.433Z,1.79
2023-03-10T03:42:24.907Z,1.79
2023-03-10T03:42:56.647Z,1.80
2023-03-10T03:43:29.642Z,1.79
2023-03-10T03:44:01.223Z,1.80
2023-03-10T03:44:32.666Z,1.81
2023-03-10T03:45:04.761Z,1.80
2023-03-10T03:45:36.153Z,1.80
2023-03-10T03:46:07.796Z,1.76
2023-03-10T03:46:39.258Z,1.79
2023-03-10T03:47:10.828Z,1.79
2023-03-10T03:47:42.352Z,1.78
2023-03-10T03:48:14.734Z,1.78
2023-03-10T03:48:46.178Z,1.76
2023-03-10T03:49:17.605Z,1.72
2023-03-10T03:49:49.000Z,1.73
2023-03-10T03:50:22.136Z,1.75
2023-03-10T03:50:53.537Z,1.73
2023-03-10T03:51:24.935Z,1.73
2023-03-10T03:51:56.394Z,1.74
2023-03-10T03:52:28.196Z,1.78
2023-03-10T03:52:59.837Z,1.77
2023-03-10T03:53:34.784Z,1.77
2023-03-10T03:54:06.251Z,1.74
2023-03-10T03:54:37.716Z,1.75
2023-03-10T03:55:11.183Z,1.77
2023-03-10T03:55:42.556Z,1.77
2023-03-10T03:56:13.911Z,1.73
2023-03-10T03:56:45.467Z,1.75
2023-03-10T03:57:17.092Z,1.75
2023-03-10T03:57:48.888Z,1.75
2023-03-10T03:58:20.478Z,1.72
2023-03-10T03:58:51.925Z,1.74
2023-03-10T03:59:23.300Z,1.71
2023-03-10T03:59:54.748Z,1.70
2023-03-10T04:00:26.186Z,1.71
2023-03-10T04:00:57.740Z,1.75
2023-03-10T04:01:29.179Z,1.73
2023-03-10T04:02:00.632Z,1.74
2023-03-10T04:02:32.137Z,1.76
2023-03-10T04:03:03.779Z,1.75
2023-03-10T04:03:35.701Z,1.79
2023-03-10T04:04:07.254Z,1.78
2023-03-10T04:04:38.924Z,1.79
2023-03-10T04:05:10.522Z,1.77
2023-03-10T04:05:42.073Z,1.78
2023-03-10T04:06:13.618Z,1.77
2023-03-10T04:06:44.981Z,1.77
2023-03-10T04:07:17.034Z,1.76
2023-03-10T04:07:50.091Z,1.76
2023-03-10T04:08:21.494Z,1.78
2023-03-10T04:08:52.891Z,1.76
2023-03-10T04:09:24.348Z,1.76
2023-03-10T04:09:55.926Z,1.78
2023-03-10T04:10:28.337Z,1.77
2023-03-10T04:10:59.774Z,1.77
2023-03-10T04:11:31.109Z,1.77
2023-03-10T04:12:02.515Z,1.76
2023-03-10T04:12:34.356Z,1.76
2023-03-10T04:13:05.841Z,1.76
2023-03-10T04:13:37.430Z,1.77
2023-03-10T04:14:08.942Z,1.74
2023-03-10T04:14:40.644Z,1.77
2023-03-10T04:15:12.296Z,1.76
2023-03-10T04:15:43.771Z,1.73
2023-03-10T04:16:15.354Z,1.74
2023-03-10T04:16:47.205Z,1.75
2023-03-10T04:17:18.650Z,1.76
2023-03-10T04:17:50.159Z,1.77
2023-03-10T04:18:21.596Z,1.77
2023-03-10T04:18:52.964Z,1.77
2023-03-10T04:19:24.393Z,1.77
2023-03-10T04:20:06.711Z,1.72
2023-03-10T04:20:39.003Z,1.77
2023-03-10T04:21:10.577Z,1.74
2023-03-10T04:21:42.085Z,1.77
2023-03-10T04:22:13.433Z,1.75
2023-03-10T04:22:44.860Z,1.77
2023-03-10T04:23:16.753Z,1.78
2023-03-10T04:23:48.104Z,1.78
2023-03-10T04:24:19.654Z,1.76
2023-03-10T04:24:51.181Z,1.75
2023-03-10T04:25:22.618Z,1.81
2023-03-10T04:25:54.122Z,1.78
2023-03-10T04:26:25.741Z,1.76
2023-03-10T04:26:57.105Z,1.77
2023-03-10T04:27:28.444Z,1.80
2023-03-10T04:27:59.803Z,1.80
2023-03-10T04:28:31.240Z,1.80
2023-03-10T04:29:02.884Z,1.77
2023-03-10T04:29:34.257Z,1.78
2023-03-10T04:30:07.085Z,1.77
2023-03-10T04:30:42.120Z,1.77
2023-03-10T04:31:15.769Z,1.77
2023-03-10T04:32:04.183Z,1.78
2023-03-10T04:32:36.533Z,1.78
2023-03-10T04:33:09.952Z,1.78
2023-03-10T04:33:41.723Z,1.77
2023-03-10T04:34:13.084Z,1.73
2023-03-10T04:34:44.694Z,1.72
2023-03-10T04:35:16.134Z,1.71
2023-03-10T04:35:48.826Z,1.67
2023-03-10T04:36:20.443Z,1.72
2023-03-10T04:36:51.814Z,1.71
2023-03-10T04:37:23.520Z,1.73
2023-03-10T04:37:55.480Z,1.72
2023-03-10T04:38:26.915Z,1.69
2023-03-10T04:38:58.312Z,1.70
2023-03-10T04:39:29.893Z,1.69
2023-03-10T04:40:02.627Z,1.69
2023-03-10T04:40:34.204Z,1.67
2023-03-10T04:41:05.848Z,1.65
2023-03-10T04:41:37.235Z,1.67
2023-03-10T04:42:08.991Z,1.65
2023-03-10T04:42:40.448Z,1.63
2023-03-10T04:43:11.957Z,1.65
2023-03-10T04:43:47.120Z,1.66
2023-03-10T04:44:30.597Z,1.66
2023-03-10T04:45:03.216Z,1.63
2023-03-10T04:45:34.712Z,1.61
2023-03-10T04:46:06.539Z,1.63
2023-03-10T04:46:38.091Z,1.60
2023-03-10T04:47:09.781Z,1.61
2023-03-10T04:47:41.546Z,1.61
2023-03-10T04:48:13.000Z,1.60
2023-03-10T04:48:44.728Z,1.62
2023-03-10T04:49:16.477Z,1.60
2023-03-10T04:49:48.037Z,1.60
2023-03-10T04:50:19.754Z,1.60
2023-03-10T04:51:02.101Z,1.65
2023-03-10T04:51:34.815Z,1.64
2023-03-10T04:52:06.629Z,1.66
2023-03-10T04:52:38.546Z,1.64
2023-03-10T04:53:10.028Z,1.60
2023-03-10T04:53:41.437Z,1.60
2023-03-10T04:54:12.911Z,1.61
2023-03-10T04:54:44.441Z,1.57
2023-03-10T04:55:16.014Z,1.56
2023-03-10T04:55:47.499Z,1.57
2023-03-10T04:56:19.285Z,1.57
2023-03-10T04:56:50.673Z,1.57
2023-03-10T04:57:24.453Z,1.59
2023-03-10T04:57:55.815Z,1.59
2023-03-10T04:58:27.668Z,1.61
2023-03-10T04:58:59.810Z,1.60
2023-03-10T04:59:31.215Z,1.59
2023-03-10T05:00:05.678Z,1.59
2023-03-10T05:00:40.189Z,1.62
2023-03-10T05:01:15.423Z,1.59
2023-03-10T05:01:48.082Z,1.59
2023-03-10T05:02:19.743Z,1.59
2023-03-10T05:02:51.195Z,1.60
2023-03-10T05:03:23.442Z,1.61
2023-03-10T05:03:54.927Z,1.61
2023-03-10T05:04:26.666Z,1.60
2023-03-10T05:04:58.278Z,1.61
2023-03-10T05:05:29.658Z,1.62
2023-03-10T05:06:01.128Z,1.62
2023-03-10T05:06:32.791Z,1.63
2023-03-10T05:07:04.330Z,1.64
2023-03-10T05:07:35.862Z,1.63
2023-03-10T05:08:08.111Z,1.62
2023-03-10T05:08:39.537Z,1.62
2023-03-10T05:09:11.044Z,1.61
2023-03-10T05:09:42.691Z,1.61
2023-03-10T05:10:14.298Z,1.62
2023-03-10T05:10:47.463Z,1.60
2023-03-10T05:11:19.335Z,1.62
2023-03-10T05:11:50.702Z,1.61
2023-03-10T05:12:22.092Z,1.61
2023-03-10T05:12:53.524Z,1.57
2023-03-10T05:13:24.962Z,1.60
2023-03-10T05:13:56.422Z,1.59
2023-03-10T05:14:27.900Z,1.58
2023-03-10T05:14:59.443Z,1.57
2023-03-10T05:15:34.430Z,1.58
2023-03-10T05:16:13.584Z,1.56
2023-03-10T05:16:48.182Z,1.60
2023-03-10T05:17:19.695Z,1.57
2023-03-10T05:17:51.203Z,1.58
2023-03-10T05:18:22.708Z,1.58
2023-03-10T05:18:54.127Z,1.59
2023-03-10T05:19:25.602Z,1.60
2023-03-10T05:19:59.855Z,1.59
2023-03-10T05:20:31.323Z,1.63
2023-03-10T05:21:02.730Z,1.62
2023-03-10T05:21:34.390Z,1.60
2023-03-10T05:22:06.708Z,1.60
2023-03-10T05:22:38.604Z,1.61
2023-03-10T05:23:10.076Z,1.61
2023-03-10T05:23:41.573Z,1.63
2023-03-10T05:24:13.012Z,1.62
2023-03-10T05:24:44.431Z,1.60
2023-03-10T05:25:15.815Z,1.65
2023-03-10T05:25:47.845Z,1.61
2023-03-10T05:26:19.316Z,1.64
2023-03-10T05:26:50.768Z,1.63
2023-03-10T05:27:22.258Z,1.65
2023-03-10T05:27:54.057Z,1.64
2023-03-10T05:28:25.418Z,1.63
2023-03-10T05:28:57.932Z,1.65
2023-03-10T05:29:29.674Z,1.63
2023-03-10T05:30:01.512Z,1.60
2023-03-10T05:30:32.907Z,1.63
2023-03-10T05:31:09.983Z,1.60
2023-03-10T05:31:41.820Z,1.59
2023-03-10T05:32:13.626Z,1.60
2023-03-10T05:32:45.149Z,1.54
2023-03-10T05:33:16.579Z,1.57
2023-03-10T05:33:48.248Z,1.55
2023-03-10T05:34:19.792Z,1.56
2023-03-10T05:34:51.197Z,1.53
2023-03-10T05:35:22.580Z,1.52
2023-03-10T05:35:54.091Z,1.52
2023-03-10T05:36:25.752Z,1.50
2023-03-10T05:36:57.139Z,1.53
2023-03-10T05:37:28.633Z,1.52
2023-03-10T05:38:00.097Z,1.51
2023-03-10T05:38:31.774Z,1.51
2023-03-10T05:39:05.481Z,1.52
2023-03-10T05:39:36.879Z,1.52
2023-03-10T05:40:11.984Z,1.54
2023-03-10T05:40:44.661Z,1.52
2023-03-10T05:41:16.493Z,1.55
2023-03-10T05:41:47.867Z,1.55
2023-03-10T05:42:19.393Z,1.55
2023-03-10T05:42:51.584Z,1.54
2023-03-10T05:43:23.004Z,1.52
2023-03-10T05:43:54.403Z,1.55
2023-03-10T05:44:25.779Z,1.54
2023-03-10T05:44:57.195Z,1.52
2023-03-10T05:45:28.632Z,1.53
2023-03-10T05:46:00.302Z,1.55
2023-03-10T05:46:31.799Z,1.55
2023-03-10T05:47:03.344Z,1.53
2023-03-10T05:47:35.060Z,1.54
2023-03-10T05:48:06.583Z,1.56
2023-03-10T05:48:38.233Z,1.58
2023-03-10T05:49:09.615Z,1.55
2023-03-10T05:49:41.179Z,1.52
2023-03-10T05:50:14.490Z,1.55
2023-03-10T05:50:45.859Z,1.51
2023-03-10T05:51:17.235Z,1.54
2023-03-10T05:51:48.727Z,1.51
2023-03-10T05:52:20.098Z,1.52
2023-03-10T05:52:51.846Z,1.51
2023-03-10T05:53:23.205Z,1.51
2023-03-10T05:53:54.560Z,1.52
2023-03-10T05:54:26.467Z,1.52
2023-03-10T05:54:58.189Z,1.47
2023-03-10T05:55:29.763Z,1.49
2023-03-10T05:56:08.900Z,1.51
2023-03-10T05:56:40.291Z,1.50
2023-03-10T05:57:13.979Z,1.50
2023-03-10T05:57:46.976Z,1.52
2023-03-10T05:58:18.588Z,1.51
2023-03-10T05:58:50.990Z,1.50
2023-03-10T05:59:22.420Z,1.53
2023-03-10T05:59:53.883Z,1.52
2023-03-10T06:00:25.754Z,1.53
2023-03-10T06:00:57.094Z,1.51
2023-03-10T06:01:28.551Z,1.50
2023-03-10T06:02:00.008Z,1.53
2023-03-10T06:02:31.904Z,1.50
2023-03-10T06:03:04.682Z,1.47
2023-03-10T06:03:37.690Z,1.48
2023-03-10T06:04:09.444Z,1.48
2023-03-10T06:04:40.967Z,1.49
2023-03-10T06:05:13.509Z,1.48
2023-03-10T06:05:44.944Z,1.47
2023-03-10T06:06:16.360Z,1.50
2023-03-10T06:06:47.807Z,1.49
2023-03-10T06:07:19.278Z,1.49
2023-03-10T06:07:51.210Z,1.52
2023-03-10T06:08:23.707Z,1.48
2023-03-10T06:08:55.525Z,1.47
2023-03-10T06:09:28.100Z,1.49
2023-03-10T06:09:59.904Z,1.47
2023-03-10T06:10:31.400Z,1.46
2023-03-10T06:11:03.678Z,1.46
2023-03-10T06:11:35.161Z,1.46
2023-03-10T06:12:06.837Z,1.45
2023-03-10T06:12:38.610Z,1.45
2023-03-10T06:13:10.168Z,1.45
2023-03-10T06:13:41.624Z,1.46
2023-03-10T06:14:13.166Z,1.47
2023-03-10T06:14:44.659Z,1.49
2023-03-10T06:15:16.111Z,1.53
2023-03-10T06:15:51.857Z,1.51
2023-03-10T06:16:23.332Z,1.52
2023-03-10T06:16:55.155Z,1.53
2023-03-10T06:17:26.509Z,1.54
2023-03-10T06:17:57.896Z,1.54
2023-03-10T06:18:29.856Z,1.52
2023-03-10T06:19:01.290Z,1.54
2023-03-10T06:19:32.750Z,1.52
2023-03-10T06:20:04.871Z,1.54
2023-03-10T06:20:39.419Z,1.51
2023-03-10T06:21:13.541Z,1.52
2023-03-10T06:21:44.975Z,1.52
2023-03-10T06:22:16.355Z,1.49
2023-03-10T06:22:47.829Z,1.49
2023-03-10T06:23:20.236Z,1.48
2023-03-10T06:23:52.629Z,1.52
2023-03-10T06:24:24.014Z,1.49
2023-03-10T06:24:55.624Z,1.51
2023-03-10T06:25:27.111Z,1.51
2023-03-10T06:26:07.285Z,1.52
2023-03-10T06:26:39.447Z,1.52
2023-03-10T06:27:11.284Z,1.51
2023-03-10T06:27:42.689Z,1.51
2023-03-10T06:28:14.000Z,1.51
2023-03-10T06:28:46.899Z,1.53
2023-03-10T06:29:18.483Z,1.54
2023-03-10T06:29:50.333Z,1.52
2023-03-10T06:30:21.885Z,1.53
2023-03-10T06:30:57.114Z,1.57
2023-03-10T06:31:28.675Z,1.56
2023-03-10T06:32:00.249Z,1.57
2023-03-10T06:32:31.750Z,1.57
2023-03-10T06:33:03.676Z,1.56
2023-03-10T06:33:35.777Z,1.56
2023-03-10T06:34:07.858Z,1.53
2023-03-10T06:34:39.265Z,1.56
2023-03-10T06:35:13.678Z,1.57
2023-03-10T06:35:45.086Z,1.57
2023-03-10T06:36:17.758Z,1.58
2023-03-10T06:36:49.225Z,1.57
2023-03-10T06:37:20.665Z,1.59
2023-03-10T06:37:52.067Z,1.58
2023-03-10T06:38:24.379Z,1.60
2023-03-10T06:38:55.981Z,1.59
2023-03-10T06:39:29.166Z,1.59
2023-03-10T06:40:00.556Z,1.58
2023-03-10T06:40:31.951Z,1.58
2023-03-10T06:41:03.668Z,1.56
2023-03-10T06:41:36.862Z,1.56
2023-03-10T06:42:08.969Z,1.58
2023-03-10T06:42:41.304Z,1.60
2023-03-10T06:43:12.821Z,1.58
2023-03-10T06:43:44.920Z,1.58
2023-03-10T06:44:18.935Z,1.57
2023-03-10T06:44:54.168Z,1.61
2023-03-10T06:45:25.715Z,1.62
2023-03-10T06:45:57.127Z,1.62
2023-03-10T06:46:28.908Z,1.58
2023-03-10T06:47:01.210Z,1.57
2023-03-10T06:47:32.661Z,1.55
2023-03-10T06:48:04.351Z,1.62
2023-03-10T06:48:37.524Z,1.57
2023-03-10T06:49:09.130Z,1.58
2023-03-10T06:49:49.202Z,1.59
2023-03-10T06:50:20.588Z,1.60
2023-03-10T06:50:51.972Z,1.61
2023-03-10T06:51:23.740Z,1.63
2023-03-10T06:51:55.344Z,1.59
2023-03-10T06:52:26.893Z,1.62
2023-03-10T06:52:58.329Z,1.63
2023-03-10T06:53:29.745Z,1.59
2023-03-10T06:54:01.320Z,1.62
2023-03-10T06:54:32.785Z,1.63
2023-03-10T06:55:04.801Z,1.62
2023-03-10T06:55:36.513Z,1.63
2023-03-10T06:56:14.994Z,1.63
2023-03-10T06:56:46.373Z,1.63
2023-03-10T06:57:20.797Z,1.62
2023-03-10T06:57:52.375Z,1.65
2023-03-10T06:58:23.718Z,1.63
2023-03-10T06:58:55.144Z,1.64
2023-03-10T06:59:26.602Z,1.60
2023-03-10T06:59:58.067Z,1.61
2023-03-10T07:00:29.518Z,1.58
2023-03-10T07:01:01.551Z,1.59
2023-03-10T07:01:34.265Z,1.56
2023-03-10T07:02:07.255Z,1.59
2023-03-10T07:02:39.106Z,1.59
2023-03-10T07:03:11.507Z,1.56
2023-03-10T07:03:43.861Z,1.59
2023-03-10T07:04:15.384Z,1.60
2023-03-10T07:04:47.242Z,1.63
2023-03-10T07:05:19.638Z,1.62
2023-03-10T07:05:51.014Z,1.63
2023-03-10T07:06:23.430Z,1.63
2023-03-10T07:06:54.812Z,1.62
2023-03-10T07:07:26.259Z,1.63
2023-03-10T07:07:57.664Z,1.63
2023-03-10T07:08:29.956Z,1.63
2023-03-10T07:09:01.417Z,1.66
2023-03-10T07:09:32.771Z,1.67
2023-03-10T07:10:08.188Z,1.67
2023-03-10T07:10:39.806Z,1.69
2023-03-10T07:11:11.420Z,1.70
2023-03-10T07:11:42.856Z,1.69
2023-03-10T07:12:14.499Z,1.70
2023-03-10T07:12:48.807Z,1.69
2023-03-10T07:13:21.975Z,1.70
2023-03-10T07:13:54.717Z,1.68
2023-03-10T07:14:26.177Z,1.64
2023-03-10T07:14:57.724Z,1.63